createdAt,value
2022-10-10T00:00:49.675Z,95338.06
2022-10-10T00:03:18.491Z,95339.25
2022-10-10T00:05:46.885Z,95328.44
2022-10-10T00:08:14.860Z,95330.19
2022-10-10T00:10:42.576Z,95326.97
2022-10-10T00:13:10.495Z,95322.63
2022-10-10T00:15:39.637Z,95324.22
2022-10-10T00:18:07.665Z,95316.69
2022-10-10T00:20:35.560Z,95326.59
2022-10-10T00:23:03.917Z,95324.78
2022-10-10T00:25:31.853Z,95321.84
2022-10-10T00:28:02.557Z,95321.84
2022-10-10T00:30:30.620Z,95333.72
2022-10-10T00:33:01.191Z,95323.41
2022-10-10T00:35:29.595Z,95320.72
2022-10-10T00:37:57.872Z,95317.53
2022-10-10T00:40:26.277Z,95313.78
2022-10-10T00:42:54.450Z,95311.41
2022-10-10T00:45:27.401Z,95307.69
2022-10-10T00:47:59.645Z,95303.16
2022-10-10T00:50:30.402Z,95303.91
2022-10-10T00:52:59.480Z,95299.94
2022-10-10T00:55:27.397Z,95309.63
2022-10-10T00:57:55.506Z,95312.00
2022-10-10T01:00:23.310Z,95300.25
2022-10-10T01:02:51.325Z,95303.13
2022-10-10T01:05:19.656Z,95294.66
2022-10-10T01:07:48.889Z,95287.72
2022-10-10T01:10:20.658Z,95289.47
2022-10-10T01:13:04.115Z,95286.53
2022-10-10T01:15:43.617Z,95290.72
2022-10-10T01:18:19.645Z,95280.22
2022-10-10T01:20:59.019Z,95277.28
2022-10-10T01:23:58.246Z,95279.03
2022-10-10T01:26:52.381Z,95276.28
2022-10-10T01:29:30.439Z,95271.13
2022-10-10T01:32:04.353Z,95269.75
2022-10-10T01:34:37.918Z,95267.19
2022-10-10T01:37:14.987Z,95257.47
2022-10-10T01:39:49.461Z,95280.81
2022-10-10T01:42:23.331Z,95286.53
2022-10-10T01:44:53.834Z,95285.94
2022-10-10T01:47:22.802Z,95282.97
2022-10-10T01:49:54.271Z,95275.28
2022-10-10T01:52:31.284Z,95280.41
2022-10-10T01:55:14.664Z,95275.47
2022-10-10T01:57:53.845Z,95292.47
2022-10-10T02:00:23.005Z,95281.16
2022-10-10T02:02:58.329Z,95290.44
2022-10-10T02:05:32.597Z,95279.97
2022-10-10T02:08:06.949Z,95279.97
2022-10-10T02:10:40.208Z,95286.94
2022-10-10T02:13:11.107Z,95276.84
2022-10-10T02:15:48.836Z,95280.22
2022-10-10T02:18:19.806Z,95273.88
2022-10-10T02:20:49.376Z,95273.69
2022-10-10T02:23:20.819Z,95266.59
2022-10-10T02:25:53.113Z,95273.91
2022-10-10T02:28:25.571Z,95273.09
2022-10-10T02:31:00.571Z,95257.91
2022-10-10T02:33:33.056Z,95276.28
2022-10-10T02:36:02.265Z,95269.53
2022-10-10T02:38:32.839Z,95270.72
2022-10-10T02:41:04.104Z,95268.16
2022-10-10T02:43:33.649Z,95268.56
2022-10-10T02:46:05.773Z,95264.63
2022-10-10T02:48:33.859Z,95267.41
2022-10-10T02:51:01.573Z,95268.56
2022-10-10T02:53:29.352Z,95278.81
2022-10-10T02:55:57.071Z,95282.00
2022-10-10T02:58:24.938Z,95282.97
2022-10-10T03:00:52.765Z,95277.88
2022-10-10T03:03:21.969Z,95275.47
2022-10-10T03:05:50.400Z,95268.38
2022-10-10T03:08:18.258Z,95268.56
2022-10-10T03:10:55.875Z,95272.91
2022-10-10T03:13:24.340Z,95277.66
2022-10-10T03:15:52.612Z,95285.56
2022-10-10T03:18:22.166Z,95274.47
2022-10-10T03:20:53.381Z,95281.59
2022-10-10T03:23:21.648Z,95282.00
2022-10-10T03:25:49.444Z,95289.69
2022-10-10T03:28:17.466Z,95271.47
2022-10-10T03:30:46.078Z,95285.22
2022-10-10T03:33:13.862Z,95293.94
2022-10-10T03:35:43.176Z,95290.38
2022-10-10T03:38:12.394Z,95292.94
2022-10-10T03:40:41.816Z,95285.63
2022-10-10T03:43:10.122Z,95286.69
2022-10-10T03:45:37.938Z,95287.88
2022-10-10T03:48:07.153Z,95287.13
2022-10-10T03:50:35.105Z,95279.63
2022-10-10T03:53:05.938Z,95290.50
2022-10-10T03:55:34.048Z,95279.41
2022-10-10T03:58:01.941Z,95273.91
2022-10-10T04:00:29.727Z,95284.38
2022-10-10T04:02:57.610Z,95280.03
2022-10-10T04:05:26.599Z,95284.59
2022-10-10T04:07:54.329Z,95284.75
2022-10-10T04:10:23.433Z,95285.94
2022-10-10T04:12:51.520Z,95277.84
2022-10-10T04:15:19.556Z,95286.16
2022-10-10T04:17:47.452Z,95286.75
2022-10-10T04:20:15.286Z,95288.50
2022-10-10T04:22:43.905Z,95291.88
2022-10-10T04:25:11.972Z,95282.38
2022-10-10T04:27:41.092Z,95281.19
2022-10-10T04:30:09.725Z,95289.31
2022-10-10T04:32:37.687Z,95288.31
2022-10-10T04:35:06.911Z,95286.56
2022-10-10T04:37:35.278Z,95284.00
2022-10-10T04:40:03.098Z,95287.34
2022-10-10T04:42:30.907Z,95280.63
2022-10-10T04:45:00.027Z,95286.91
2022-10-10T04:47:27.810Z,95286.16
2022-10-10T04:49:55.637Z,95273.69
2022-10-10T04:52:23.436Z,95281.41
2022-10-10T04:54:51.351Z,95278.03
2022-10-10T04:57:19.129Z,95279.84
2022-10-10T04:59:46.941Z,95276.28
2022-10-10T05:02:16.077Z,95277.84
2022-10-10T05:04:43.908Z,95272.91
2022-10-10T05:07:11.709Z,95286.34
2022-10-10T05:09:39.489Z,95282.78
2022-10-10T05:12:07.307Z,95287.72
2022-10-10T05:14:35.060Z,95289.09
2022-10-10T05:17:02.912Z,95284.16
2022-10-10T05:19:32.073Z,95284.75
2022-10-10T05:21:59.858Z,95285.97
2022-10-10T05:24:27.783Z,95286.94
2022-10-10T05:26:55.604Z,95285.16
2022-10-10T05:29:23.428Z,95286.16
2022-10-10T05:31:51.269Z,95288.50
2022-10-10T05:34:19.105Z,95285.31
2022-10-10T05:36:48.277Z,95285.09
2022-10-10T05:39:16.199Z,95288.88
2022-10-10T05:41:44.068Z,95302.94
2022-10-10T05:44:11.964Z,95292.28
2022-10-10T05:46:39.789Z,95305.50
2022-10-10T05:49:07.630Z,95308.88
2022-10-10T05:51:35.530Z,95301.38
2022-10-10T05:54:05.780Z,95306.50
2022-10-10T05:56:33.776Z,95322.91
2022-10-10T05:59:01.679Z,95320.16
2022-10-10T06:01:29.564Z,95319.56
2022-10-10T06:03:57.375Z,95316.22
2022-10-10T06:06:27.032Z,95326.25
2022-10-10T06:08:55.767Z,95334.16
2022-10-10T06:11:26.086Z,95335.50
2022-10-10T06:13:54.357Z,95340.69
2022-10-10T06:16:22.822Z,95336.09
2022-10-10T06:18:50.765Z,95337.81
2022-10-10T06:21:19.200Z,95340.56
2022-10-10T06:23:47.187Z,95338.75
2022-10-10T06:26:15.288Z,95343.84
2022-10-10T06:28:44.495Z,95349.97
2022-10-10T06:31:15.825Z,95343.59
2022-10-10T06:33:45.558Z,95355.63
2022-10-10T06:36:15.238Z,95358.16
2022-10-10T06:38:46.036Z,95353.50
2022-10-10T06:41:14.397Z,95369.78
2022-10-10T06:43:42.493Z,95377.22
2022-10-10T06:46:11.824Z,95379.34
2022-10-10T06:48:39.709Z,95374.13
2022-10-10T06:51:09.144Z,95361.53
2022-10-10T06:53:37.357Z,95372.41
2022-10-10T06:56:05.482Z,95373.06
2022-10-10T06:58:34.030Z,95365.91
2022-10-10T07:01:03.893Z,95368.63
2022-10-10T07:03:33.297Z,95370.78
2022-10-10T07:06:02.522Z,95372.88
2022-10-10T07:08:31.125Z,95375.41
2022-10-10T07:10:58.952Z,95378.69
2022-10-10T07:13:26.762Z,95379.81
2022-10-10T07:15:54.669Z,95371.56
2022-10-10T07:18:22.788Z,95362.72
2022-10-10T07:20:52.004Z,95376.25
2022-10-10T07:23:19.804Z,95369.56
2022-10-10T07:25:47.546Z,95376.44
2022-10-10T07:28:15.642Z,95378.41
2022-10-10T07:30:44.485Z,95373.66
2022-10-10T07:33:12.771Z,95374.25
2022-10-10T07:35:41.112Z,95371.47
2022-10-10T07:38:12.121Z,95376.44
2022-10-10T07:40:40.996Z,95386.66
2022-10-10T07:43:08.828Z,95389.59
2022-10-10T07:45:37.055Z,95388.50
2022-10-10T07:48:05.377Z,95386.91
2022-10-10T07:50:33.259Z,95404.28
2022-10-10T07:53:01.086Z,95399.19
2022-10-10T07:55:31.046Z,95410.66
2022-10-10T07:58:00.146Z,95404.53
2022-10-10T08:00:28.024Z,95410.75
2022-10-10T08:02:55.810Z,95410.13
2022-10-10T08:05:23.572Z,95409.59
2022-10-10T08:07:51.879Z,95413.53
2022-10-10T08:10:20.721Z,95413.28
2022-10-10T08:12:49.862Z,95406.91
2022-10-10T08:15:17.932Z,95409.75
2022-10-10T08:17:45.787Z,95414.84
2022-10-10T08:20:13.821Z,95406.28
2022-10-10T08:22:41.646Z,95419.22
2022-10-10T08:25:10.056Z,95423.66
2022-10-10T08:27:37.992Z,95425.63
2022-10-10T08:30:08.241Z,95427.75
2022-10-10T08:32:36.051Z,95428.03
2022-10-10T08:35:03.890Z,95434.28
2022-10-10T08:37:35.258Z,95431.91
2022-10-10T08:40:07.239Z,95431.97
2022-10-10T08:42:47.917Z,95422.88
2022-10-10T08:45:22.789Z,95422.91
2022-10-10T08:47:55.224Z,95435.63
2022-10-10T08:50:26.318Z,95428.66
2022-10-10T08:52:59.967Z,95432.25
2022-10-10T08:55:33.533Z,95431.16
2022-10-10T08:58:06.886Z,95425.53
2022-10-10T09:00:41.024Z,95441.53
2022-10-10T09:03:22.617Z,95437.78
2022-10-10T09:06:06.798Z,95437.47
2022-10-10T09:08:46.607Z,95440.94
2022-10-10T09:11:29.800Z,95443.66
2022-10-10T09:14:12.238Z,95447.66
2022-10-10T09:16:50.124Z,95451.09
2022-10-10T09:19:32.503Z,95448.38
2022-10-10T09:22:05.853Z,95442.66
2022-10-10T09:24:42.550Z,95450.22
2022-10-10T09:27:16.111Z,95449.44
2022-10-10T09:29:50.942Z,95449.84
2022-10-10T09:32:23.710Z,95449.53
2022-10-10T09:34:55.890Z,95444.78
2022-10-10T09:37:46.436Z,95443.03
2022-10-10T09:40:23.485Z,95447.44
2022-10-10T09:42:51.575Z,95453.03
2022-10-10T09:45:21.748Z,95455.66
2022-10-10T09:47:54.965Z,95453.19
2022-10-10T09:50:24.045Z,95450.38
2022-10-10T09:52:53.137Z,95454.34
2022-10-10T09:55:27.317Z,95457.75
2022-10-10T09:57:58.554Z,95460.56
2022-10-10T10:00:30.036Z,95450.66
2022-10-10T10:03:13.849Z,95453.09
2022-10-10T10:05:44.800Z,95447.03
2022-10-10T10:08:25.238Z,95446.53
2022-10-10T10:10:57.920Z,95452.47
2022-10-10T10:13:28.899Z,95452.44
2022-10-10T10:16:04.418Z,95447.19
2022-10-10T10:18:40.033Z,95455.38
2022-10-10T10:21:15.517Z,95450.50
2022-10-10T10:23:50.432Z,95445.53
2022-10-10T10:26:21.683Z,95456.63
2022-10-10T10:28:51.438Z,95459.44
2022-10-10T10:31:28.517Z,95463.94
2022-10-10T10:34:12.119Z,95461.41
2022-10-10T10:36:50.384Z,95463.47
2022-10-10T10:39:30.136Z,95462.03
2022-10-10T10:42:05.674Z,95460.69
2022-10-10T10:44:41.756Z,95459.22
2022-10-10T10:47:30.150Z,95458.13
2022-10-10T10:50:16.165Z,95460.31
2022-10-10T10:53:01.389Z,95448.81
2022-10-10T10:55:39.467Z,95454.44
2022-10-10T10:59:09.927Z,95452.06
2022-10-10T11:01:54.707Z,95461.66
2022-10-10T11:05:23.730Z,95447.44
2022-10-10T11:07:22.086Z,95446.16
2022-10-10T11:09:56.757Z,95451.81
2022-10-10T11:12:46.790Z,95442.97
2022-10-10T11:15:19.003Z,95443.47
2022-10-10T11:17:53.931Z,95434.75
2022-10-10T11:20:27.444Z,95443.22
2022-10-10T11:23:06.615Z,95433.19
2022-10-10T11:25:44.105Z,95431.03
2022-10-10T11:28:16.994Z,95424.16
2022-10-10T11:30:50.144Z,95429.13
2022-10-10T11:33:24.010Z,95437.78
2022-10-10T11:35:56.991Z,95422.38
2022-10-10T11:38:31.184Z,95425.88
2022-10-10T11:41:03.825Z,95436.16
2022-10-10T11:43:40.267Z,95437.16
2022-10-10T11:46:17.456Z,95443.44
2022-10-10T11:48:54.372Z,95436.25
2022-10-10T11:51:37.143Z,95447.66
2022-10-10T11:54:15.509Z,95436.88
2022-10-10T11:56:46.708Z,95437.00
2022-10-10T11:59:20.008Z,95439.72
2022-10-10T12:01:50.011Z,95430.00
2022-10-10T12:04:18.313Z,95434.84
2022-10-10T12:06:52.009Z,95430.78
2022-10-10T12:09:27.373Z,95441.00
2022-10-10T12:11:58.990Z,95440.03
2022-10-10T12:14:31.181Z,95429.56
2022-10-10T12:16:59.715Z,95427.25
2022-10-10T12:19:29.664Z,95430.22
2022-10-10T12:22:00.135Z,95432.50
2022-10-10T12:24:31.353Z,95435.13
2022-10-10T12:27:34.219Z,95433.44
2022-10-10T12:30:24.788Z,95425.31
2022-10-10T12:32:54.328Z,95425.16
2022-10-10T12:35:35.608Z,95416.59
2022-10-10T12:38:25.012Z,95422.59
2022-10-10T12:41:15.634Z,95427.59
2022-10-10T12:43:47.044Z,95424.16
2022-10-10T12:46:29.430Z,95423.00
2022-10-10T12:49:20.247Z,95412.22
2022-10-10T12:52:01.043Z,95421.75
2022-10-10T12:54:34.543Z,95414.19
2022-10-10T12:57:16.022Z,95416.00
2022-10-10T12:59:46.004Z,95415.00
2022-10-10T13:02:20.117Z,95420.19
2022-10-10T13:04:52.644Z,95418.56
2022-10-10T13:07:22.800Z,95418.00
2022-10-10T13:09:52.906Z,95421.69
2022-10-10T13:12:30.006Z,95416.66
2022-10-10T13:14:58.740Z,95419.34
2022-10-10T13:17:29.950Z,95417.03
2022-10-10T13:20:00.020Z,95419.19
2022-10-10T13:22:29.697Z,95415.00
2022-10-10T13:24:59.175Z,95414.09
2022-10-10T13:27:33.670Z,95420.28
2022-10-10T13:30:02.315Z,95415.69
2022-10-10T13:32:32.961Z,95418.41
2022-10-10T13:35:04.741Z,95427.19
2022-10-10T13:37:32.936Z,95421.50
2022-10-10T13:40:01.955Z,95419.56
2022-10-10T13:42:37.978Z,95414.81
2022-10-10T13:45:31.954Z,95399.81
2022-10-10T13:48:18.213Z,95416.72
2022-10-10T13:51:06.009Z,95419.38
2022-10-10T13:53:46.103Z,95420.91
2022-10-10T13:56:16.224Z,95415.91
2022-10-10T13:58:48.955Z,95419.38
2022-10-10T14:01:34.631Z,95418.53
2022-10-10T14:04:18.857Z,95414.66
2022-10-10T14:06:55.372Z,95419.97
2022-10-10T14:09:29.118Z,95452.66
2022-10-10T14:11:57.731Z,95419.25
2022-10-10T14:14:34.317Z,95419.56
2022-10-10T14:17:04.137Z,95424.78
2022-10-10T14:19:33.310Z,95420.63
2022-10-10T14:22:01.382Z,95412.28
2022-10-10T14:24:32.145Z,95422.63
2022-10-10T14:27:06.612Z,95430.22
2022-10-10T14:29:36.086Z,95420.38
2022-10-10T14:32:03.981Z,95427.13
2022-10-10T14:34:34.460Z,95418.13
2022-10-10T14:37:02.268Z,95423.19
2022-10-10T14:39:30.372Z,95424.81
2022-10-10T14:41:58.768Z,95424.31
2022-10-10T14:44:29.657Z,95421.72
2022-10-10T14:46:58.993Z,95419.75
2022-10-10T14:49:27.086Z,95418.72
2022-10-10T14:51:55.147Z,95418.81
2022-10-10T14:54:23.308Z,95421.34
2022-10-10T14:57:08.680Z,95417.84
2022-10-10T14:59:48.367Z,95421.16
2022-10-10T15:02:21.445Z,95414.28
2022-10-10T15:04:50.162Z,95421.97
2022-10-10T15:07:18.933Z,95424.66
2022-10-10T15:12:39.694Z,95427.91
2022-10-10T15:15:09.850Z,95430.66
2022-10-10T15:17:39.084Z,95426.47
2022-10-10T15:20:09.861Z,95430.81
2022-10-10T15:22:38.166Z,95425.38
2022-10-10T15:25:07.414Z,95433.41
2022-10-10T15:27:35.735Z,95437.50
2022-10-10T15:30:04.161Z,95427.84
2022-10-10T15:32:32.705Z,95407.91
2022-10-10T15:35:02.210Z,95426.50
2022-10-10T15:37:30.117Z,95425.53
2022-10-10T15:39:58.777Z,95449.22
2022-10-10T15:42:26.644Z,95430.50
2022-10-10T15:44:55.067Z,95427.19
2022-10-10T15:47:22.958Z,95416.56
2022-10-10T15:49:51.055Z,95422.69
2022-10-10T15:52:23.076Z,95425.91
2022-10-10T15:54:51.401Z,95407.69
2022-10-10T15:57:19.629Z,95417.63
2022-10-10T15:59:48.467Z,95411.28
2022-10-10T16:02:18.636Z,95414.69
2022-10-10T16:04:47.310Z,95408.84
2022-10-10T16:07:34.684Z,95408.66
2022-10-10T16:10:09.009Z,95409.78
2022-10-10T16:12:37.406Z,95411.75
2022-10-10T16:15:07.210Z,95415.81
2022-10-10T16:17:35.491Z,95416.50
2022-10-10T16:20:03.862Z,95413.56
2022-10-10T16:22:31.810Z,95415.25
2022-10-10T16:27:49.256Z,95412.59
2022-10-10T16:30:17.577Z,95415.41
2022-10-10T16:32:45.444Z,95412.59
2022-10-10T16:35:13.419Z,95406.81
2022-10-10T16:37:41.604Z,95412.91
2022-10-10T16:40:10.449Z,95412.03
2022-10-10T16:42:38.761Z,95405.72
2022-10-10T16:45:09.511Z,95422.03
2022-10-10T16:47:38.168Z,95417.19
2022-10-10T16:50:07.188Z,95422.03
2022-10-10T16:52:38.097Z,95428.66
2022-10-10T16:55:11.347Z,95427.22
2022-10-10T16:57:40.132Z,95431.91
2022-10-10T17:00:10.734Z,95442.50
2022-10-10T17:02:42.164Z,95431.34
2022-10-10T17:05:10.633Z,95427.53
2022-10-10T17:07:38.472Z,95433.16
2022-10-10T17:10:07.456Z,95440.91
2022-10-10T17:12:35.514Z,95448.47
2022-10-10T17:15:03.630Z,95446.66
2022-10-10T17:17:32.958Z,95451.25
2022-10-10T17:20:02.041Z,95453.06
2022-10-10T17:22:30.314Z,95454.88
2022-10-10T17:24:58.542Z,95453.59
2022-10-10T17:27:26.365Z,95463.38
2022-10-10T17:29:54.713Z,95459.88
2022-10-10T17:32:23.198Z,95466.03
2022-10-10T17:34:53.548Z,95457.47
2022-10-10T17:37:21.597Z,95476.16
2022-10-10T17:39:51.868Z,95475.38
2022-10-10T17:42:19.999Z,95474.78
2022-10-10T17:44:52.529Z,95471.84
2022-10-10T17:47:23.836Z,95464.75
2022-10-10T17:49:53.289Z,95477.34
2022-10-10T17:52:21.565Z,95475.16
2022-10-10T17:54:50.306Z,95474.66
2022-10-10T17:57:18.577Z,95470.34
2022-10-10T17:59:46.682Z,95476.06
2022-10-10T18:02:16.613Z,95471.59
2022-10-10T18:04:44.717Z,95481.22
2022-10-10T18:07:14.528Z,95470.41
2022-10-10T18:09:46.455Z,95469.41
2022-10-10T18:12:14.324Z,95467.25
2022-10-10T18:14:42.236Z,95467.66
2022-10-10T18:17:10.228Z,95464.34
2022-10-10T18:19:41.215Z,95474.00
2022-10-10T18:22:09.192Z,95477.22
2022-10-10T18:24:38.555Z,95478.06
2022-10-10T18:27:06.457Z,95463.28
2022-10-10T18:29:34.631Z,95474.72
2022-10-10T18:32:02.523Z,95476.41
2022-10-10T18:34:30.465Z,95473.44
2022-10-10T18:36:58.252Z,95485.00
2022-10-10T18:39:30.788Z,95478.66
2022-10-10T18:42:02.192Z,95481.44
2022-10-10T18:44:30.166Z,95490.25
2022-10-10T18:46:58.362Z,95494.06
2022-10-10T18:49:26.552Z,95491.91
2022-10-10T18:51:55.513Z,95484.63
2022-10-10T18:54:23.411Z,95481.13
2022-10-10T18:56:52.020Z,95476.78
2022-10-10T18:59:22.675Z,95486.16
2022-10-10T19:01:53.238Z,95483.59
2022-10-10T19:04:26.813Z,95488.41
2022-10-10T19:06:57.641Z,95481.50
2022-10-10T19:09:30.002Z,95485.66
2022-10-10T19:11:57.901Z,95486.06
2022-10-10T19:14:27.748Z,95479.16
2022-10-10T19:16:56.030Z,95473.03
2022-10-10T19:19:24.514Z,95479.97
2022-10-10T19:21:53.157Z,95490.56
2022-10-10T19:24:22.426Z,95485.22
2022-10-10T19:26:53.312Z,95491.00
2022-10-10T19:29:22.065Z,95493.59
2022-10-10T19:31:51.594Z,95493.63
2022-10-10T19:34:19.578Z,95479.78
2022-10-10T19:36:47.488Z,95480.59
2022-10-10T19:39:15.576Z,95496.84
2022-10-10T19:41:43.585Z,95491.50
2022-10-10T19:44:11.352Z,95495.28
2022-10-10T19:46:39.263Z,95500.66
2022-10-10T19:49:08.435Z,95502.25
2022-10-10T19:51:36.353Z,95502.81
2022-10-10T19:54:04.418Z,95494.91
2022-10-10T19:56:32.237Z,95502.44
2022-10-10T19:59:04.279Z,95498.88
2022-10-10T20:01:32.764Z,95498.13
2022-10-10T20:04:00.654Z,95497.53
2022-10-10T20:06:30.114Z,95502.88
2022-10-10T20:08:58.115Z,95517.16
2022-10-10T20:11:26.389Z,95511.81
2022-10-10T20:13:55.645Z,95512.59
2022-10-10T20:16:25.141Z,95503.50
2022-10-10T20:18:53.633Z,95523.91
2022-10-10T20:21:24.039Z,95521.13
2022-10-10T20:23:54.580Z,95509.66
2022-10-10T20:26:24.153Z,95505.44
2022-10-10T20:28:53.017Z,95513.09
2022-10-10T20:31:23.126Z,95520.19
2022-10-10T20:33:52.285Z,95518.72
2022-10-10T20:36:21.799Z,95527.34
2022-10-10T20:38:54.552Z,95540.44
2022-10-10T20:41:23.350Z,95548.34
2022-10-10T20:43:51.420Z,95546.22
2022-10-10T20:46:19.241Z,95527.84
2022-10-10T20:48:47.118Z,95538.16
2022-10-10T20:51:15.003Z,95537.97
2022-10-10T20:53:42.845Z,95538.94
2022-10-10T20:56:13.687Z,95545.69
2022-10-10T20:58:42.131Z,95541.72
2022-10-10T21:01:12.274Z,95539.94
2022-10-10T21:03:41.623Z,95553.59
2022-10-10T21:06:14.369Z,95533.38
2022-10-10T21:08:43.024Z,95551.19
2022-10-10T21:11:15.068Z,95547.22
2022-10-10T21:13:44.524Z,95543.84
2022-10-10T21:16:15.092Z,95541.47
2022-10-10T21:18:53.557Z,95539.31
2022-10-10T21:21:28.158Z,95544.84
2022-10-10T21:23:56.860Z,95531.78
2022-10-10T21:26:28.243Z,95544.44
2022-10-10T21:28:56.990Z,95541.50
2022-10-10T21:31:27.460Z,95543.06
2022-10-10T21:33:55.741Z,95556.91
2022-10-10T21:36:25.386Z,95547.22
2022-10-10T21:38:53.425Z,95556.31
2022-10-10T21:41:26.337Z,95547.00
2022-10-10T21:43:56.373Z,95550.38
2022-10-10T21:46:27.777Z,95550.00
2022-10-10T21:48:57.221Z,95547.00
2022-10-10T21:51:26.968Z,95555.72
2022-10-10T21:53:56.709Z,95550.53
2022-10-10T21:56:26.630Z,95555.47
2022-10-10T21:58:58.810Z,95570.91
2022-10-10T22:01:32.924Z,95567.28
2022-10-10T22:04:02.053Z,95571.81
2022-10-10T22:06:32.087Z,95570.03
2022-10-10T22:09:01.836Z,95549.81
2022-10-10T22:11:34.361Z,95582.28
2022-10-10T22:14:03.226Z,95583.84
2022-10-10T22:16:31.875Z,95588.78
2022-10-10T22:19:00.289Z,95577.34
2022-10-10T22:21:31.744Z,95573.97
2022-10-10T22:24:01.460Z,95576.53
2022-10-10T22:26:31.519Z,95571.63
2022-10-10T22:28:59.813Z,95573.03
2022-10-10T22:31:27.624Z,95572.81
2022-10-10T22:33:55.412Z,95564.50
2022-10-10T22:36:23.167Z,95567.66
2022-10-10T22:38:50.959Z,95568.25
2022-10-10T22:41:18.735Z,95559.34
2022-10-10T22:43:48.022Z,95572.78
2022-10-10T22:46:15.803Z,95582.22
2022-10-10T22:48:43.871Z,95596.41
2022-10-10T22:51:15.443Z,95608.09
2022-10-10T22:53:44.281Z,95605.78
2022-10-10T22:56:15.328Z,95611.56
2022-10-10T22:58:43.449Z,95613.59
2022-10-10T23:01:15.456Z,95613.00
2022-10-10T23:03:43.669Z,95627.91
2022-10-10T23:06:11.669Z,95628.16
2022-10-10T23:08:41.722Z,95633.72
2022-10-10T23:11:09.492Z,95616.75
2022-10-10T23:13:37.293Z,95628.03
2022-10-10T23:16:05.646Z,95616.22
2022-10-10T23:18:35.101Z,95618.22
2022-10-10T23:21:02.878Z,95624.97
2022-10-10T23:23:30.742Z,95609.75
2022-10-10T23:25:58.597Z,95610.75
2022-10-10T23:28:28.317Z,95614.53
2022-10-10T23:31:01.373Z,95608.16
2022-10-10T23:33:33.276Z,95610.56
2022-10-10T23:36:07.592Z,95604.41
2022-10-10T23:38:35.931Z,95611.00
2022-10-10T23:41:06.789Z,95616.38
2022-10-10T23:43:35.133Z,95612.59
2022-10-10T23:46:03.524Z,95610.97
2022-10-10T23:48:31.584Z,95615.31
2022-10-10T23:50:59.522Z,95626.25
2022-10-10T23:53:28.767Z,95624.84
2022-10-10T23:55:56.563Z,95630.97
2022-10-10T23:58:24.305Z,95636.94
